sensor_id;sensor_type;location;lat;lon;timestamp;P1;durP1;ratioP1;P2;durP2;ratioP2
30723;SDS011;17473;52.286;20.930;2023-08-06T00:00:58;22.25;;;11.50;;
30723;SDS011;17473;52.286;20.930;2023-08-06T00:03:26;21.10;;;11.85;;
30723;SDS011;17473;52.286;20.930;2023-08-06T00:05:53;22.67;;;11.18;;
30723;SDS011;17473;52.286;20.930;2023-08-06T00:08:20;23.05;;;11.02;;
30723;SDS011;17473;52.286;20.930;2023-08-06T00:10:47;24.63;;;11.73;;
30723;SDS011;17473;52.286;20.930;2023-08-06T00:13:15;24.50;;;12.10;;
30723;SDS011;17473;52.286;20.930;2023-08-06T00:15:42;28.25;;;13.50;;
30723;SDS011;17473;52.286;20.930;2023-08-06T00:18:09;26.27;;;12.10;;
30723;SDS011;17473;52.286;20.930;2023-08-06T00:20:39;26.13;;;14.40;;
30723;SDS011;17473;52.286;20.930;2023-08-06T00:23:07;32.47;;;13.38;;
30723;SDS011;17473;52.286;20.930;2023-08-06T00:25:35;18.77;;;11.80;;
30723;SDS011;17473;52.286;20.930;2023-08-06T00:28:03;17.45;;;10.68;;
30723;SDS011;17473;52.286;20.930;2023-08-06T00:30:31;21.13;;;11.45;;
30723;SDS011;17473;52.286;20.930;2023-08-06T00:32:58;22.20;;;12.18;;
30723;SDS011;17473;52.286;20.930;2023-08-06T00:35:25;20.58;;;11.50;;
30723;SDS011;17473;52.286;20.930;2023-08-06T00:37:52;15.70;;;10.68;;
30723;SDS011;17473;52.286;20.930;2023-08-06T00:40:22;19.80;;;10.48;;
30723;SDS011;17473;52.286;20.930;2023-08-06T00:42:49;20.08;;;9.43;;
30723;SDS011;17473;52.286;20.930;2023-08-06T00:45:16;14.88;;;10.18;;
30723;SDS011;17473;52.286;20.930;2023-08-06T00:47:44;16.30;;;10.38;;
30723;SDS011;17473;52.286;20.930;2023-08-06T00:50:12;12.77;;;9.40;;
30723;SDS011;17473;52.286;20.930;2023-08-06T00:52:39;14.50;;;9.80;;
30723;SDS011;17473;52.286;20.930;2023-08-06T00:55:07;12.73;;;9.27;;
30723;SDS011;17473;52.286;20.930;2023-08-06T00:57:34;13.23;;;9.55;;
30723;SDS011;17473;52.286;20.930;2023-08-06T01:00:02;19.88;;;13.27;;
30723;SDS011;17473;52.286;20.930;2023-08-06T01:02:30;23.17;;;12.07;;
30723;SDS011;17473;52.286;20.930;2023-08-06T01:04:58;19.10;;;11.88;;
30723;SDS011;17473;52.286;20.930;2023-08-06T01:07:48;19.50;;;11.40;;
30723;SDS011;17473;52.286;20.930;2023-08-06T01:10:56;14.18;;;10.23;;
30723;SDS011;17473;52.286;20.930;2023-08-06T01:17:12;13.13;;;8.43;;
30723;SDS011;17473;52.286;20.930;2023-08-06T01:19:40;12.38;;;9.18;;
30723;SDS011;17473;52.286;20.930;2023-08-06T01:22:07;16.50;;;9.35;;
30723;SDS011;17473;52.286;20.930;2023-08-06T01:24:34;12.80;;;8.15;;
30723;SDS011;17473;52.286;20.930;2023-08-06T01:27:11;14.52;;;9.50;;
30723;SDS011;17473;52.286;20.930;2023-08-06T01:32:46;9.98;;;7.82;;
30723;SDS011;17473;52.286;20.930;2023-08-06T01:35:20;11.13;;;8.70;;
30723;SDS011;17473;52.286;20.930;2023-08-06T01:37:49;15.77;;;8.93;;
30723;SDS011;17473;52.286;20.930;2023-08-06T01:40:17;11.00;;;8.40;;
30723;SDS011;17473;52.286;20.930;2023-08-06T01:42:44;12.25;;;8.32;;
30723;SDS011;17473;52.286;20.930;2023-08-06T01:45:11;12.43;;;9.10;;
30723;SDS011;17473;52.286;20.930;2023-08-06T01:47:38;10.98;;;8.40;;
30723;SDS011;17473;52.286;20.930;2023-08-06T01:50:06;15.00;;;8.73;;
30723;SDS011;17473;52.286;20.930;2023-08-06T01:52:33;11.10;;;8.68;;
30723;SDS011;17473;52.286;20.930;2023-08-06T01:55:00;12.68;;;8.82;;
30723;SDS011;17473;52.286;20.930;2023-08-06T01:57:27;10.43;;;7.93;;
30723;SDS011;17473;52.286;20.930;2023-08-06T01:59:55;10.55;;;8.25;;
30723;SDS011;17473;52.286;20.930;2023-08-06T02:02:22;14.00;;;8.20;;
30723;SDS011;17473;52.286;20.930;2023-08-06T02:04:49;8.45;;;7.55;;
30723;SDS011;17473;52.286;20.930;2023-08-06T02:07:16;10.27;;;7.38;;
30723;SDS011;17473;52.286;20.930;2023-08-06T02:09:43;12.88;;;7.88;;
30723;SDS011;17473;52.286;20.930;2023-08-06T02:12:10;10.73;;;8.30;;
30723;SDS011;17473;52.286;20.930;2023-08-06T02:14:37;8.52;;;7.45;;
30723;SDS011;17473;52.286;20.930;2023-08-06T02:17:04;10.40;;;7.72;;
30723;SDS011;17473;52.286;20.930;2023-08-06T02:19:32;10.77;;;7.75;;
30723;SDS011;17473;52.286;20.930;2023-08-06T02:21:59;11.57;;;7.65;;
30723;SDS011;17473;52.286;20.930;2023-08-06T02:24:26;9.50;;;8.00;;
30723;SDS011;17473;52.286;20.930;2023-08-06T02:26:53;9.07;;;7.13;;
30723;SDS011;17473;52.286;20.930;2023-08-06T02:29:22;9.90;;;6.97;;
30723;SDS011;17473;52.286;20.930;2023-08-06T02:31:49;11.20;;;7.65;;
30723;SDS011;17473;52.286;20.930;2023-08-06T02:34:17;11.27;;;7.47;;
30723;SDS011;17473;52.286;20.930;2023-08-06T02:36:44;8.40;;;6.95;;
30723;SDS011;17473;52.286;20.930;2023-08-06T02:39:11;12.15;;;7.13;;
30723;SDS011;17473;52.286;20.930;2023-08-06T02:41:38;9.80;;;7.38;;
30723;SDS011;17473;52.286;20.930;2023-08-06T02:44:05;10.90;;;7.07;;
30723;SDS011;17473;52.286;20.930;2023-08-06T02:46:32;8.48;;;7.22;;
30723;SDS011;17473;52.286;20.930;2023-08-06T02:48:59;12.68;;;8.02;;
30723;SDS011;17473;52.286;20.930;2023-08-06T02:51:26;10.77;;;7.55;;
30723;SDS011;17473;52.286;20.930;2023-08-06T02:53:53;13.75;;;7.63;;
30723;SDS011;17473;52.286;20.930;2023-08-06T02:56:20;10.15;;;8.13;;
30723;SDS011;17473;52.286;20.930;2023-08-06T02:58:48;10.95;;;8.07;;
30723;SDS011;17473;52.286;20.930;2023-08-06T03:01:15;12.65;;;8.55;;
30723;SDS011;17473;52.286;20.930;2023-08-06T03:03:42;11.57;;;8.15;;
30723;SDS011;17473;52.286;20.930;2023-08-06T03:06:09;11.88;;;9.02;;
30723;SDS011;17473;52.286;20.930;2023-08-06T03:08:36;10.80;;;7.85;;
30723;SDS011;17473;52.286;20.930;2023-08-06T03:11:03;9.57;;;7.95;;
30723;SDS011;17473;52.286;20.930;2023-08-06T03:13:31;12.48;;;8.45;;
30723;SDS011;17473;52.286;20.930;2023-08-06T03:15:58;11.02;;;8.40;;
30723;SDS011;17473;52.286;20.930;2023-08-06T03:18:26;11.27;;;9.15;;
30723;SDS011;17473;52.286;20.930;2023-08-06T03:20:54;12.43;;;8.63;;
30723;SDS011;17473;52.286;20.930;2023-08-06T03:23:21;12.90;;;9.88;;
30723;SDS011;17473;52.286;20.930;2023-08-06T03:25:48;11.93;;;9.05;;
30723;SDS011;17473;52.286;20.930;2023-08-06T03:28:15;13.02;;;9.57;;
30723;SDS011;17473;52.286;20.930;2023-08-06T03:30:43;13.50;;;10.13;;
30723;SDS011;17473;52.286;20.930;2023-08-06T03:33:10;16.38;;;10.25;;
30723;SDS011;17473;52.286;20.930;2023-08-06T03:35:37;14.93;;;10.30;;
30723;SDS011;17473;52.286;20.930;2023-08-06T03:38:04;15.48;;;11.80;;
30723;SDS011;17473;52.286;20.930;2023-08-06T03:40:31;13.77;;;11.25;;
30723;SDS011;17473;52.286;20.930;2023-08-06T03:43:01;16.75;;;11.30;;
30723;SDS011;17473;52.286;20.930;2023-08-06T03:45:28;19.58;;;11.15;;
30723;SDS011;17473;52.286;20.930;2023-08-06T03:47:55;15.57;;;11.00;;
30723;SDS011;17473;52.286;20.930;2023-08-06T03:50:22;17.45;;;11.93;;
30723;SDS011;17473;52.286;20.930;2023-08-06T03:52:49;13.75;;;11.15;;
30723;SDS011;17473;52.286;20.930;2023-08-06T03:55:16;19.25;;;12.73;;
30723;SDS011;17473;52.286;20.930;2023-08-06T03:57:43;17.25;;;12.32;;
30723;SDS011;17473;52.286;20.930;2023-08-06T04:00:11;23.55;;;13.95;;
30723;SDS011;17473;52.286;20.930;2023-08-06T04:02:38;17.88;;;13.48;;
30723;SDS011;17473;52.286;20.930;2023-08-06T04:05:06;19.25;;;13.77;;
30723;SDS011;17473;52.286;20.930;2023-08-06T04:07:33;22.95;;;14.93;;
30723;SDS011;17473;52.286;20.930;2023-08-06T04:10:02;18.75;;;14.13;;
30723;SDS011;17473;52.286;20.930;2023-08-06T04:12:30;19.33;;;14.23;;
30723;SDS011;17473;52.286;20.930;2023-08-06T04:15:00;19.90;;;14.43;;
30723;SDS011;17473;52.286;20.930;2023-08-06T04:17:27;21.20;;;14.35;;
30723;SDS011;17473;52.286;20.930;2023-08-06T04:19:54;22.27;;;15.40;;
30723;SDS011;17473;52.286;20.930;2023-08-06T04:22:24;20.92;;;15.40;;
30723;SDS011;17473;52.286;20.930;2023-08-06T04:24:52;19.13;;;13.85;;
30723;SDS011;17473;52.286;20.930;2023-08-06T04:27:19;24.20;;;16.13;;
30723;SDS011;17473;52.286;20.930;2023-08-06T04:29:46;21.58;;;16.75;;
30723;SDS011;17473;52.286;20.930;2023-08-06T04:32:13;25.92;;;17.05;;
30723;SDS011;17473;52.286;20.930;2023-08-06T04:34:40;25.92;;;17.70;;
30723;SDS011;17473;52.286;20.930;2023-08-06T04:37:08;22.13;;;17.05;;
30723;SDS011;17473;52.286;20.930;2023-08-06T04:39:35;21.30;;;14.88;;
30723;SDS011;17473;52.286;20.930;2023-08-06T04:42:02;21.60;;;17.08;;
30723;SDS011;17473;52.286;20.930;2023-08-06T04:44:29;21.40;;;15.68;;
30723;SDS011;17473;52.286;20.930;2023-08-06T04:46:56;20.90;;;15.68;;
30723;SDS011;17473;52.286;20.930;2023-08-06T04:49:24;21.80;;;16.80;;
30723;SDS011;17473;52.286;20.930;2023-08-06T04:51:51;30.10;;;16.02;;
30723;SDS011;17473;52.286;20.930;2023-08-06T04:54:19;24.25;;;17.05;;
30723;SDS011;17473;52.286;20.930;2023-08-06T04:56:46;22.55;;;15.85;;
30723;SDS011;17473;52.286;20.930;2023-08-06T04:59:13;25.05;;;15.40;;
30723;SDS011;17473;52.286;20.930;2023-08-06T05:01:40;26.05;;;17.67;;
30723;SDS011;17473;52.286;20.930;2023-08-06T05:04:08;24.83;;;16.40;;
30723;SDS011;17473;52.286;20.930;2023-08-06T05:06:35;21.80;;;15.57;;
30723;SDS011;17473;52.286;20.930;2023-08-06T05:09:04;18.17;;;15.05;;
30723;SDS011;17473;52.286;20.930;2023-08-06T05:11:32;22.88;;;17.40;;
30723;SDS011;17473;52.286;20.930;2023-08-06T05:13:59;24.60;;;16.88;;
30723;SDS011;17473;52.286;20.930;2023-08-06T05:16:26;20.95;;;16.60;;
30723;SDS011;17473;52.286;20.930;2023-08-06T05:18:54;19.00;;;15.55;;
30723;SDS011;17473;52.286;20.930;2023-08-06T05:21:21;20.88;;;15.40;;
30723;SDS011;17473;52.286;20.930;2023-08-06T05:23:48;23.02;;;14.93;;
30723;SDS011;17473;52.286;20.930;2023-08-06T05:26:15;19.60;;;14.88;;
30723;SDS011;17473;52.286;20.930;2023-08-06T05:28:44;21.45;;;14.05;;
30723;SDS011;17473;52.286;20.930;2023-08-06T05:31:12;18.75;;;13.80;;
30723;SDS011;17473;52.286;20.930;2023-08-06T05:33:39;21.00;;;14.38;;
30723;SDS011;17473;52.286;20.930;2023-08-06T05:36:06;22.42;;;14.68;;
30723;SDS011;17473;52.286;20.930;2023-08-06T05:38:33;18.80;;;12.43;;
30723;SDS011;17473;52.286;20.930;2023-08-06T05:41:01;16.42;;;11.95;;
30723;SDS011;17473;52.286;20.930;2023-08-06T05:43:28;16.02;;;11.82;;
30723;SDS011;17473;52.286;20.930;2023-08-06T05:45:55;13.10;;;11.25;;
30723;SDS011;17473;52.286;20.930;2023-08-06T05:48:22;16.40;;;11.15;;
30723;SDS011;17473;52.286;20.930;2023-08-06T05:50:51;15.52;;;10.82;;
30723;SDS011;17473;52.286;20.930;2023-08-06T05:53:18;11.32;;;9.75;;
30723;SDS011;17473;52.286;20.930;2023-08-06T05:55:46;11.82;;;9.65;;
30723;SDS011;17473;52.286;20.930;2023-08-06T05:58:14;11.95;;;9.75;;
30723;SDS011;17473;52.286;20.930;2023-08-06T06:00:41;14.10;;;8.98;;
30723;SDS011;17473;52.286;20.930;2023-08-06T06:03:08;10.93;;;8.70;;
30723;SDS011;17473;52.286;20.930;2023-08-06T06:05:37;12.80;;;8.40;;
30723;SDS011;17473;52.286;20.930;2023-08-06T06:08:05;10.38;;;8.18;;
30723;SDS011;17473;52.286;20.930;2023-08-06T06:10:32;11.80;;;7.38;;
30723;SDS011;17473;52.286;20.930;2023-08-06T06:12:59;12.73;;;8.25;;
30723;SDS011;17473;52.286;20.930;2023-08-06T06:15:26;13.82;;;8.80;;
30723;SDS011;17473;52.286;20.930;2023-08-06T06:17:53;14.48;;;8.18;;
30723;SDS011;17473;52.286;20.930;2023-08-06T06:20:21;10.65;;;9.15;;
30723;SDS011;17473;52.286;20.930;2023-08-06T06:22:48;8.43;;;7.63;;
30723;SDS011;17473;52.286;20.930;2023-08-06T06:25:15;14.18;;;8.55;;
30723;SDS011;17473;52.286;20.930;2023-08-06T06:27:42;8.75;;;7.90;;
30723;SDS011;17473;52.286;20.930;2023-08-06T06:30:10;8.02;;;7.20;;
30723;SDS011;17473;52.286;20.930;2023-08-06T06:32:38;9.98;;;7.47;;
30723;SDS011;17473;52.286;20.930;2023-08-06T06:35:07;13.52;;;8.00;;
30723;SDS011;17473;52.286;20.930;2023-08-06T06:37:34;11.85;;;7.78;;
30723;SDS011;17473;52.286;20.930;2023-08-06T06:40:02;10.75;;;7.25;;
30723;SDS011;17473;52.286;20.930;2023-08-06T06:42:30;7.88;;;7.07;;
30723;SDS011;17473;52.286;20.930;2023-08-06T06:44:57;13.52;;;7.50;;
30723;SDS011;17473;52.286;20.930;2023-08-06T06:47:24;10.77;;;7.28;;
30723;SDS011;17473;52.286;20.930;2023-08-06T06:49:51;10.13;;;6.68;;
30723;SDS011;17473;52.286;20.930;2023-08-06T06:52:18;8.55;;;6.90;;
30723;SDS011;17473;52.286;20.930;2023-08-06T06:54:45;6.93;;;6.22;;
30723;SDS011;17473;52.286;20.930;2023-08-06T06:57:12;9.65;;;7.03;;
30723;SDS011;17473;52.286;20.930;2023-08-06T06:59:39;6.70;;;6.05;;
30723;SDS011;17473;52.286;20.930;2023-08-06T07:02:07;7.25;;;6.28;;
30723;SDS011;17473;52.286;20.930;2023-08-06T07:04:34;10.82;;;6.35;;
30723;SDS011;17473;52.286;20.930;2023-08-06T07:07:01;11.50;;;6.38;;
30723;SDS011;17473;52.286;20.930;2023-08-06T07:09:28;13.85;;;6.93;;
30723;SDS011;17473;52.286;20.930;2023-08-06T07:11:55;7.82;;;5.78;;
30723;SDS011;17473;52.286;20.930;2023-08-06T07:14:24;7.22;;;6.50;;
30723;SDS011;17473;52.286;20.930;2023-08-06T07:16:52;9.30;;;6.30;;
30723;SDS011;17473;52.286;20.930;2023-08-06T07:19:19;14.30;;;6.45;;
30723;SDS011;17473;52.286;20.930;2023-08-06T07:21:47;9.75;;;7.03;;
30723;SDS011;17473;52.286;20.930;2023-08-06T07:24:14;7.35;;;6.00;;
30723;SDS011;17473;52.286;20.930;2023-08-06T07:26:41;10.82;;;6.80;;
30723;SDS011;17473;52.286;20.930;2023-08-06T07:29:08;10.88;;;6.15;;
30723;SDS011;17473;52.286;20.930;2023-08-06T07:31:35;11.48;;;6.78;;
30723;SDS011;17473;52.286;20.930;2023-08-06T07:34:02;9.30;;;6.78;;
30723;SDS011;17473;52.286;20.930;2023-08-06T07:36:29;11.15;;;7.00;;
30723;SDS011;17473;52.286;20.930;2023-08-06T07:38:57;14.30;;;6.80;;
30723;SDS011;17473;52.286;20.930;2023-08-06T07:41:24;8.82;;;7.05;;
30723;SDS011;17473;52.286;20.930;2023-08-06T07:43:51;7.80;;;6.28;;
30723;SDS011;17473;52.286;20.930;2023-08-06T07:46:18;13.23;;;6.30;;
30723;SDS011;17473;52.286;20.930;2023-08-06T07:48:45;18.17;;;6.82;;
30723;SDS011;17473;52.286;20.930;2023-08-06T07:51:13;8.25;;;6.85;;
30723;SDS011;17473;52.286;20.930;2023-08-06T07:53:43;13.68;;;7.38;;
30723;SDS011;17473;52.286;20.930;2023-08-06T07:56:11;14.20;;;7.32;;
30723;SDS011;17473;52.286;20.930;2023-08-06T07:58:38;12.45;;;7.45;;
30723;SDS011;17473;52.286;20.930;2023-08-06T08:01:06;13.90;;;7.63;;
30723;SDS011;17473;52.286;20.930;2023-08-06T08:03:33;13.57;;;7.95;;
30723;SDS011;17473;52.286;20.930;2023-08-06T08:06:01;12.90;;;7.72;;
30723;SDS011;17473;52.286;20.930;2023-08-06T08:08:28;9.25;;;6.93;;
30723;SDS011;17473;52.286;20.930;2023-08-06T08:10:55;13.90;;;6.97;;
30723;SDS011;17473;52.286;20.930;2023-08-06T08:13:22;11.65;;;7.85;;
30723;SDS011;17473;52.286;20.930;2023-08-06T08:15:49;14.63;;;7.78;;
30723;SDS011;17473;52.286;20.930;2023-08-06T08:18:16;15.18;;;7.53;;
30723;SDS011;17473;52.286;20.930;2023-08-06T08:20:43;13.07;;;7.10;;
30723;SDS011;17473;52.286;20.930;2023-08-06T08:23:10;11.68;;;7.28;;
30723;SDS011;17473;52.286;20.930;2023-08-06T08:25:37;14.45;;;6.93;;
30723;SDS011;17473;52.286;20.930;2023-08-06T08:28:05;15.23;;;7.45;;
30723;SDS011;17473;52.286;20.930;2023-08-06T08:30:32;8.40;;;6.75;;
30723;SDS011;17473;52.286;20.930;2023-08-06T08:32:59;12.48;;;7.13;;
30723;SDS011;17473;52.286;20.930;2023-08-06T08:35:26;11.18;;;7.10;;
30723;SDS011;17473;52.286;20.930;2023-08-06T08:37:53;14.15;;;7.65;;
30723;SDS011;17473;52.286;20.930;2023-08-06T08:40:21;10.45;;;6.53;;
30723;SDS011;17473;52.286;20.930;2023-08-06T08:42:52;13.43;;;7.40;;
30723;SDS011;17473;52.286;20.930;2023-08-06T08:45:21;16.58;;;6.63;;
30723;SDS011;17473;52.286;20.930;2023-08-06T08:47:52;10.50;;;7.15;;
30723;SDS011;17473;52.286;20.930;2023-08-06T08:50:19;10.75;;;7.10;;
30723;SDS011;17473;52.286;20.930;2023-08-06T08:52:47;7.97;;;7.25;;
30723;SDS011;17473;52.286;20.930;2023-08-06T08:55:16;13.65;;;7.45;;
30723;SDS011;17473;52.286;20.930;2023-08-06T08:57:44;12.60;;;7.50;;
30723;SDS011;17473;52.286;20.930;2023-08-06T09:00:11;12.80;;;7.78;;
30723;SDS011;17473;52.286;20.930;2023-08-06T09:02:40;9.68;;;7.03;;
30723;SDS011;17473;52.286;20.930;2023-08-06T09:05:09;8.98;;;6.85;;
30723;SDS011;17473;52.286;20.930;2023-08-06T09:07:43;11.20;;;6.45;;
30723;SDS011;17473;52.286;20.930;2023-08-06T09:10:16;9.73;;;6.80;;
30723;SDS011;17473;52.286;20.930;2023-08-06T09:12:45;8.75;;;7.13;;
30723;SDS011;17473;52.286;20.930;2023-08-06T09:15:14;9.73;;;6.63;;
30723;SDS011;17473;52.286;20.930;2023-08-06T09:17:41;9.90;;;6.00;;
30723;SDS011;17473;52.286;20.930;2023-08-06T09:20:12;14.95;;;7.18;;
30723;SDS011;17473;52.286;20.930;2023-08-06T09:22:41;12.43;;;7.00;;
30723;SDS011;17473;52.286;20.930;2023-08-06T09:25:08;11.43;;;6.93;;
30723;SDS011;17473;52.286;20.930;2023-08-06T09:27:36;14.35;;;7.40;;
30723;SDS011;17473;52.286;20.930;2023-08-06T09:30:06;14.00;;;6.43;;
30723;SDS011;17473;52.286;20.930;2023-08-06T09:32:46;6.45;;;5.60;;
30723;SDS011;17473;52.286;20.930;2023-08-06T09:35:18;12.48;;;6.93;;
30723;SDS011;17473;52.286;20.930;2023-08-06T09:37:45;9.60;;;6.15;;
30723;SDS011;17473;52.286;20.930;2023-08-06T09:40:24;8.45;;;6.32;;
30723;SDS011;17473;52.286;20.930;2023-08-06T09:42:56;9.98;;;6.20;;
30723;SDS011;17473;52.286;20.930;2023-08-06T09:45:34;8.85;;;6.57;;
30723;SDS011;17473;52.286;20.930;2023-08-06T09:48:07;10.63;;;6.47;;
30723;SDS011;17473;52.286;20.930;2023-08-06T09:50:36;13.70;;;6.80;;
30723;SDS011;17473;52.286;20.930;2023-08-06T09:53:05;7.78;;;6.43;;
30723;SDS011;17473;52.286;20.930;2023-08-06T09:55:35;11.45;;;5.93;;
30723;SDS011;17473;52.286;20.930;2023-08-06T09:58:02;11.05;;;6.32;;
30723;SDS011;17473;52.286;20.930;2023-08-06T10:00:30;14.70;;;6.90;;
30723;SDS011;17473;52.286;20.930;2023-08-06T10:03:03;13.93;;;6.13;;
30723;SDS011;17473;52.286;20.930;2023-08-06T10:05:33;11.88;;;6.18;;
30723;SDS011;17473;52.286;20.930;2023-08-06T10:08:01;9.75;;;6.40;;
30723;SDS011;17473;52.286;20.930;2023-08-06T10:10:30;9.10;;;5.95;;
30723;SDS011;17473;52.286;20.930;2023-08-06T10:12:58;9.85;;;5.78;;
30723;SDS011;17473;52.286;20.930;2023-08-06T10:15:29;10.80;;;5.88;;
30723;SDS011;17473;52.286;20.930;2023-08-06T10:17:59;7.20;;;5.72;;
30723;SDS011;17473;52.286;20.930;2023-08-06T10:20:32;8.57;;;5.82;;
30723;SDS011;17473;52.286;20.930;2023-08-06T10:23:06;17.48;;;6.68;;
30723;SDS011;17473;52.286;20.930;2023-08-06T10:25:34;7.88;;;5.38;;
30723;SDS011;17473;52.286;20.930;2023-08-06T10:28:07;10.05;;;5.00;;
30723;SDS011;17473;52.286;20.930;2023-08-06T10:30:46;10.77;;;6.03;;
30723;SDS011;17473;52.286;20.930;2023-08-06T10:33:14;9.90;;;6.20;;
30723;SDS011;17473;52.286;20.930;2023-08-06T10:35:46;8.82;;;5.15;;
30723;SDS011;17473;52.286;20.930;2023-08-06T10:40:49;9.73;;;5.85;;
30723;SDS011;17473;52.286;20.930;2023-08-06T10:45:57;5.80;;;5.18;;
30723;SDS011;17473;52.286;20.930;2023-08-06T10:48:29;7.78;;;5.45;;
30723;SDS011;17473;52.286;20.930;2023-08-06T10:51:00;7.93;;;5.10;;
30723;SDS011;17473;52.286;20.930;2023-08-06T10:53:28;6.38;;;5.00;;
30723;SDS011;17473;52.286;20.930;2023-08-06T10:55:59;11.43;;;5.70;;
30723;SDS011;17473;52.286;20.930;2023-08-06T10:58:32;9.68;;;6.13;;
30723;SDS011;17473;52.286;20.930;2023-08-06T11:01:00;8.82;;;5.60;;
30723;SDS011;17473;52.286;20.930;2023-08-06T11:03:28;9.25;;;4.97;;
30723;SDS011;17473;52.286;20.930;2023-08-06T11:05:55;8.82;;;5.43;;
30723;SDS011;17473;52.286;20.930;2023-08-06T11:08:24;8.10;;;5.15;;
30723;SDS011;17473;52.286;20.930;2023-08-06T11:10:56;8.63;;;5.35;;
30723;SDS011;17473;52.286;20.930;2023-08-06T11:13:42;10.35;;;4.93;;
30723;SDS011;17473;52.286;20.930;2023-08-06T11:16:22;7.38;;;5.72;;
30723;SDS011;17473;52.286;20.930;2023-08-06T11:18:53;11.95;;;5.18;;
30723;SDS011;17473;52.286;20.930;2023-08-06T11:21:23;6.53;;;5.50;;
30723;SDS011;17473;52.286;20.930;2023-08-06T11:23:53;23.70;;;5.47;;
30723;SDS011;17473;52.286;20.930;2023-08-06T11:26:21;6.93;;;4.95;;
30723;SDS011;17473;52.286;20.930;2023-08-06T11:28:50;6.78;;;4.53;;
30723;SDS011;17473;52.286;20.930;2023-08-06T11:31:20;7.13;;;4.72;;
30723;SDS011;17473;52.286;20.930;2023-08-06T11:33:51;6.00;;;4.53;;
30723;SDS011;17473;52.286;20.930;2023-08-06T11:36:32;7.90;;;4.80;;
30723;SDS011;17473;52.286;20.930;2023-08-06T11:39:00;7.93;;;4.80;;
30723;SDS011;17473;52.286;20.930;2023-08-06T11:41:29;11.13;;;4.88;;
30723;SDS011;17473;52.286;20.930;2023-08-06T11:43:57;6.85;;;4.60;;
30723;SDS011;17473;52.286;20.930;2023-08-06T11:46:27;8.60;;;4.40;;
30723;SDS011;17473;52.286;20.930;2023-08-06T11:48:55;6.32;;;4.57;;
30723;SDS011;17473;52.286;20.930;2023-08-06T11:51:25;7.50;;;4.90;;
30723;SDS011;17473;52.286;20.930;2023-08-06T11:53:56;6.97;;;5.30;;
30723;SDS011;17473;52.286;20.930;2023-08-06T11:56:25;8.98;;;4.80;;
30723;SDS011;17473;52.286;20.930;2023-08-06T11:58:54;6.00;;;5.03;;
30723;SDS011;17473;52.286;20.930;2023-08-06T12:01:21;11.63;;;5.45;;
30723;SDS011;17473;52.286;20.930;2023-08-06T12:03:49;8.98;;;4.70;;
30723;SDS011;17473;52.286;20.930;2023-08-06T12:06:16;9.30;;;5.18;;
30723;SDS011;17473;52.286;20.930;2023-08-06T12:08:43;6.95;;;4.90;;
30723;SDS011;17473;52.286;20.930;2023-08-06T12:11:10;7.93;;;4.88;;
30723;SDS011;17473;52.286;20.930;2023-08-06T12:13:37;9.55;;;4.90;;
30723;SDS011;17473;52.286;20.930;2023-08-06T12:16:05;5.53;;;4.75;;
30723;SDS011;17473;52.286;20.930;2023-08-06T12:18:32;8.13;;;4.72;;
30723;SDS011;17473;52.286;20.930;2023-08-06T12:20:59;5.35;;;4.72;;
30723;SDS011;17473;52.286;20.930;2023-08-06T12:23:29;8.55;;;4.93;;
30723;SDS011;17473;52.286;20.930;2023-08-06T12:25:59;6.78;;;5.18;;
30723;SDS011;17473;52.286;20.930;2023-08-06T12:28:26;5.55;;;4.43;;
30723;SDS011;17473;52.286;20.930;2023-08-06T12:30:53;6.82;;;5.32;;
30723;SDS011;17473;52.286;20.930;2023-08-06T12:33:21;8.07;;;4.97;;
30723;SDS011;17473;52.286;20.930;2023-08-06T12:35:48;11.85;;;5.45;;
30723;SDS011;17473;52.286;20.930;2023-08-06T12:38:16;10.63;;;6.13;;
30723;SDS011;17473;52.286;20.930;2023-08-06T12:40:43;8.43;;;5.25;;
30723;SDS011;17473;52.286;20.930;2023-08-06T12:43:10;8.27;;;5.30;;
30723;SDS011;17473;52.286;20.930;2023-08-06T12:45:37;8.18;;;5.15;;
30723;SDS011;17473;52.286;20.930;2023-08-06T12:48:04;6.82;;;5.20;;
30723;SDS011;17473;52.286;20.930;2023-08-06T12:50:31;9.50;;;4.72;;
30723;SDS011;17473;52.286;20.930;2023-08-06T12:53:02;6.00;;;4.53;;
30723;SDS011;17473;52.286;20.930;2023-08-06T12:55:31;8.07;;;5.40;;
30723;SDS011;17473;52.286;20.930;2023-08-06T12:57:58;6.90;;;5.50;;
30723;SDS011;17473;52.286;20.930;2023-08-06T13:00:26;8.73;;;5.05;;
30723;SDS011;17473;52.286;20.930;2023-08-06T13:02:54;8.52;;;5.78;;
30723;SDS011;17473;52.286;20.930;2023-08-06T13:05:21;8.23;;;5.93;;
30723;SDS011;17473;52.286;20.930;2023-08-06T13:07:48;10.57;;;5.43;;
30723;SDS011;17473;52.286;20.930;2023-08-06T13:10:15;6.60;;;5.72;;
30723;SDS011;17473;52.286;20.930;2023-08-06T13:12:43;10.20;;;5.57;;
30723;SDS011;17473;52.286;20.930;2023-08-06T13:15:10;8.23;;;5.78;;
30723;SDS011;17473;52.286;20.930;2023-08-06T13:17:37;11.75;;;5.47;;
30723;SDS011;17473;52.286;20.930;2023-08-06T13:20:05;9.65;;;5.85;;
30723;SDS011;17473;52.286;20.930;2023-08-06T13:22:33;8.07;;;4.93;;
30723;SDS011;17473;52.286;20.930;2023-08-06T13:25:00;9.35;;;5.25;;
30723;SDS011;17473;52.286;20.930;2023-08-06T13:27:27;9.75;;;5.43;;
30723;SDS011;17473;52.286;20.930;2023-08-06T13:29:54;6.78;;;4.93;;
30723;SDS011;17473;52.286;20.930;2023-08-06T13:32:21;10.73;;;4.90;;
30723;SDS011;17473;52.286;20.930;2023-08-06T13:34:48;6.18;;;4.80;;
30723;SDS011;17473;52.286;20.930;2023-08-06T13:37:16;5.75;;;4.75;;
30723;SDS011;17473;52.286;20.930;2023-08-06T13:39:43;6.65;;;5.28;;
30723;SDS011;17473;52.286;20.930;2023-08-06T13:42:10;5.97;;;4.65;;
30723;SDS011;17473;52.286;20.930;2023-08-06T13:44:37;7.22;;;4.55;;
30723;SDS011;17473;52.286;20.930;2023-08-06T13:47:04;7.53;;;4.57;;
30723;SDS011;17473;52.286;20.930;2023-08-06T13:49:31;7.93;;;4.75;;
30723;SDS011;17473;52.286;20.930;2023-08-06T13:51:58;8.25;;;5.18;;
30723;SDS011;17473;52.286;20.930;2023-08-06T13:54:45;13.45;;;4.63;;
30723;SDS011;17473;52.286;20.930;2023-08-06T13:57:13;7.72;;;4.45;;
30723;SDS011;17473;52.286;20.930;2023-08-06T13:59:40;5.50;;;4.68;;
30723;SDS011;17473;52.286;20.930;2023-08-06T14:02:07;5.07;;;4.07;;
30723;SDS011;17473;52.286;20.930;2023-08-06T14:04:34;6.13;;;4.90;;
30723;SDS011;17473;52.286;20.930;2023-08-06T14:07:03;5.35;;;4.75;;
30723;SDS011;17473;52.286;20.930;2023-08-06T14:09:31;6.80;;;4.63;;
30723;SDS011;17473;52.286;20.930;2023-08-06T14:11:58;8.25;;;4.65;;
30723;SDS011;17473;52.286;20.930;2023-08-06T14:14:25;7.97;;;4.10;;
30723;SDS011;17473;52.286;20.930;2023-08-06T14:16:53;15.27;;;5.03;;
30723;SDS011;17473;52.286;20.930;2023-08-06T14:19:22;8.05;;;4.90;;
30723;SDS011;17473;52.286;20.930;2023-08-06T14:21:49;6.20;;;5.38;;
30723;SDS011;17473;52.286;20.930;2023-08-06T14:24:17;6.22;;;4.55;;
30723;SDS011;17473;52.286;20.930;2023-08-06T14:26:45;10.48;;;4.28;;
30723;SDS011;17473;52.286;20.930;2023-08-06T14:29:12;8.48;;;4.55;;
30723;SDS011;17473;52.286;20.930;2023-08-06T14:31:40;5.95;;;4.63;;
30723;SDS011;17473;52.286;20.930;2023-08-06T14:34:07;7.93;;;3.80;;
30723;SDS011;17473;52.286;20.930;2023-08-06T14:36:35;7.07;;;4.57;;
30723;SDS011;17473;52.286;20.930;2023-08-06T14:39:02;4.65;;;4.20;;
30723;SDS011;17473;52.286;20.930;2023-08-06T14:41:29;6.63;;;4.25;;